sensor_id;sensor_type;location;lat;lon;timestamp;temperature;humidity
20526;DHT22;10421;49.142;9.232;2023-09-19T00:00:27;21.10;99.90
20526;DHT22;10421;49.142;9.232;2023-09-19T00:02:54;21.10;99.90
20526;DHT22;10421;49.142;9.232;2023-09-19T00:05:24;21.10;99.90
20526;DHT22;10421;49.142;9.232;2023-09-19T00:07:54;21.10;99.90
20526;DHT22;10421;49.142;9.232;2023-09-19T00:10:22;21.10;99.90
20526;DHT22;10421;49.142;9.232;2023-09-19T00:12:50;21.20;99.90
20526;DHT22;10421;49.142;9.232;2023-09-19T00:15:18;21.10;99.90
20526;DHT22;10421;49.142;9.232;2023-09-19T00:17:47;21.20;99.90
20526;DHT22;10421;49.142;9.232;2023-09-19T00:20:14;21.10;99.90
20526;DHT22;10421;49.142;9.232;2023-09-19T00:22:42;21.20;99.90
20526;DHT22;10421;49.142;9.232;2023-09-19T00:25:09;21.20;99.90
20526;DHT22;10421;49.142;9.232;2023-09-19T00:27:40;21.20;99.90
20526;DHT22;10421;49.142;9.232;2023-09-19T00:30:09;21.20;99.90
20526;DHT22;10421;49.142;9.232;2023-09-19T00:32:40;21.20;99.90
20526;DHT22;10421;49.142;9.232;2023-09-19T00:35:08;21.10;99.90
20526;DHT22;10421;49.142;9.232;2023-09-19T00:37:36;21.10;99.90
20526;DHT22;10421;49.142;9.232;2023-09-19T00:40:06;20.90;99.90
20526;DHT22;10421;49.142;9.232;2023-09-19T00:42:36;20.80;99.90
20526;DHT22;10421;49.142;9.232;2023-09-19T00:45:04;20.80;99.90
20526;DHT22;10421;49.142;9.232;2023-09-19T00:47:35;20.70;99.90
20526;DHT22;10421;49.142;9.232;2023-09-19T00:50:04;20.60;99.90
20526;DHT22;10421;49.142;9.232;2023-09-19T00:52:34;20.50;99.90
20526;DHT22;10421;49.142;9.232;2023-09-19T00:55:05;20.40;99.90
20526;DHT22;10421;49.142;9.232;2023-09-19T00:57:32;20.50;99.90
20526;DHT22;10421;49.142;9.232;2023-09-19T01:00:00;20.40;99.90
20526;DHT22;10421;49.142;9.232;2023-09-19T01:02:31;20.40;99.90
20526;DHT22;10421;49.142;9.232;2023-09-19T01:04:58;20.50;99.90
20526;DHT22;10421;49.142;9.232;2023-09-19T01:07:24;20.50;99.90
20526;DHT22;10421;49.142;9.232;2023-09-19T01:09:57;20.60;99.90
20526;DHT22;10421;49.142;9.232;2023-09-19T01:12:30;20.60;99.90
20526;DHT22;10421;49.142;9.232;2023-09-19T01:15:03;20.60;99.90
20526;DHT22;10421;49.142;9.232;2023-09-19T01:17:38;20.70;99.90
20526;DHT22;10421;49.142;9.232;2023-09-19T01:20:20;20.70;99.90
20526;DHT22;10421;49.142;9.232;2023-09-19T01:23:00;20.70;99.90
20526;DHT22;10421;49.142;9.232;2023-09-19T01:25:56;20.70;99.90
20526;DHT22;10421;49.142;9.232;2023-09-19T01:28:35;20.80;99.90
20526;DHT22;10421;49.142;9.232;2023-09-19T01:31:10;20.90;99.90
20526;DHT22;10421;49.142;9.232;2023-09-19T01:33:57;20.90;99.90
20526;DHT22;10421;49.142;9.232;2023-09-19T01:36:26;20.80;99.90
20526;DHT22;10421;49.142;9.232;2023-09-19T01:38:54;20.70;99.90
20526;DHT22;10421;49.142;9.232;2023-09-19T01:41:26;20.70;99.90
20526;DHT22;10421;49.142;9.232;2023-09-19T01:43:53;20.80;99.90
20526;DHT22;10421;49.142;9.232;2023-09-19T01:46:25;20.80;99.90
20526;DHT22;10421;49.142;9.232;2023-09-19T01:49:00;20.70;99.90
20526;DHT22;10421;49.142;9.232;2023-09-19T01:51:33;20.70;99.90
20526;DHT22;10421;49.142;9.232;2023-09-19T01:54:03;20.60;99.90
20526;DHT22;10421;49.142;9.232;2023-09-19T01:56:36;20.60;99.90
20526;DHT22;10421;49.142;9.232;2023-09-19T01:59:06;20.50;99.90
20526;DHT22;10421;49.142;9.232;2023-09-19T02:01:37;20.50;99.90
20526;DHT22;10421;49.142;9.232;2023-09-19T02:04:04;20.50;99.90
20526;DHT22;10421;49.142;9.232;2023-09-19T02:06:32;20.50;99.90
20526;DHT22;10421;49.142;9.232;2023-09-19T02:09:00;20.50;99.90
20526;DHT22;10421;49.142;9.232;2023-09-19T02:11:28;20.40;99.90
20526;DHT22;10421;49.142;9.232;2023-09-19T02:13:55;20.40;99.90
20526;DHT22;10421;49.142;9.232;2023-09-19T02:16:21;20.50;99.90
20526;DHT22;10421;49.142;9.232;2023-09-19T02:18:49;20.50;99.90
20526;DHT22;10421;49.142;9.232;2023-09-19T02:21:16;20.50;99.90
20526;DHT22;10421;49.142;9.232;2023-09-19T02:23:43;20.40;99.90
20526;DHT22;10421;49.142;9.232;2023-09-19T02:26:10;20.30;99.90
20526;DHT22;10421;49.142;9.232;2023-09-19T02:28:39;20.30;99.90
20526;DHT22;10421;49.142;9.232;2023-09-19T02:31:06;20.30;99.90
20526;DHT22;10421;49.142;9.232;2023-09-19T02:33:33;20.20;99.90
20526;DHT22;10421;49.142;9.232;2023-09-19T02:36:02;20.20;99.90
20526;DHT22;10421;49.142;9.232;2023-09-19T02:38:31;20.20;99.90
20526;DHT22;10421;49.142;9.232;2023-09-19T02:40:57;20.20;99.90
20526;DHT22;10421;49.142;9.232;2023-09-19T02:43:24;20.30;99.90
20526;DHT22;10421;49.142;9.232;2023-09-19T02:45:51;20.20;99.90
20526;DHT22;10421;49.142;9.232;2023-09-19T02:48:19;20.20;99.90
20526;DHT22;10421;49.142;9.232;2023-09-19T02:50:46;20.20;99.90
20526;DHT22;10421;49.142;9.232;2023-09-19T02:53:14;20.20;99.90
20526;DHT22;10421;49.142;9.232;2023-09-19T02:55:41;20.20;99.90
20526;DHT22;10421;49.142;9.232;2023-09-19T02:58:08;20.20;99.90
20526;DHT22;10421;49.142;9.232;2023-09-19T03:00:38;20.10;99.90
20526;DHT22;10421;49.142;9.232;2023-09-19T03:03:04;20.10;99.90
20526;DHT22;10421;49.142;9.232;2023-09-19T03:05:33;20.10;99.90
20526;DHT22;10421;49.142;9.232;2023-09-19T03:08:01;20.10;99.90
20526;DHT22;10421;49.142;9.232;2023-09-19T03:10:29;20.10;99.90
20526;DHT22;10421;49.142;9.232;2023-09-19T03:12:57;20.00;99.90
20526;DHT22;10421;49.142;9.232;2023-09-19T03:15:25;20.00;99.90
20526;DHT22;10421;49.142;9.232;2023-09-19T03:17:52;20.00;99.90
20526;DHT22;10421;49.142;9.232;2023-09-19T03:20:19;20.00;99.90
20526;DHT22;10421;49.142;9.232;2023-09-19T03:22:46;20.00;99.90
20526;DHT22;10421;49.142;9.232;2023-09-19T03:25:13;20.00;99.90
20526;DHT22;10421;49.142;9.232;2023-09-19T03:27:42;20.00;99.90
20526;DHT22;10421;49.142;9.232;2023-09-19T03:30:09;20.00;99.90
20526;DHT22;10421;49.142;9.232;2023-09-19T03:32:43;20.00;99.90
20526;DHT22;10421;49.142;9.232;2023-09-19T03:35:10;20.00;99.90
20526;DHT22;10421;49.142;9.232;2023-09-19T03:37:40;20.00;99.90
20526;DHT22;10421;49.142;9.232;2023-09-19T03:40:07;20.00;99.90
20526;DHT22;10421;49.142;9.232;2023-09-19T03:42:38;20.00;99.90
20526;DHT22;10421;49.142;9.232;2023-09-19T03:45:07;19.90;99.90
20526;DHT22;10421;49.142;9.232;2023-09-19T03:47:36;19.90;99.90
20526;DHT22;10421;49.142;9.232;2023-09-19T03:50:04;19.90;99.90
20526;DHT22;10421;49.142;9.232;2023-09-19T03:52:31;19.90;99.90
20526;DHT22;10421;49.142;9.232;2023-09-19T03:54:58;19.90;99.90
20526;DHT22;10421;49.142;9.232;2023-09-19T03:57:25;19.90;99.90
20526;DHT22;10421;49.142;9.232;2023-09-19T03:59:51;20.00;99.90
20526;DHT22;10421;49.142;9.232;2023-09-19T04:02:20;20.00;99.90
20526;DHT22;10421;49.142;9.232;2023-09-19T04:04:49;20.00;99.90
20526;DHT22;10421;49.142;9.232;2023-09-19T04:07:16;20.10;99.90
20526;DHT22;10421;49.142;9.232;2023-09-19T04:09:42;20.00;99.90
20526;DHT22;10421;49.142;9.232;2023-09-19T04:12:09;20.10;99.90
20526;DHT22;10421;49.142;9.232;2023-09-19T04:14:36;20.10;99.90
20526;DHT22;10421;49.142;9.232;2023-09-19T04:17:03;20.10;99.90
20526;DHT22;10421;49.142;9.232;2023-09-19T04:19:32;20.10;99.90
20526;DHT22;10421;49.142;9.232;2023-09-19T04:21:59;20.20;99.90
20526;DHT22;10421;49.142;9.232;2023-09-19T04:24:26;20.20;99.90
20526;DHT22;10421;49.142;9.232;2023-09-19T04:26:52;20.10;99.90
20526;DHT22;10421;49.142;9.232;2023-09-19T04:29:19;20.10;99.90
20526;DHT22;10421;49.142;9.232;2023-09-19T04:31:46;20.20;99.90
20526;DHT22;10421;49.142;9.232;2023-09-19T04:34:13;20.20;99.90
20526;DHT22;10421;49.142;9.232;2023-09-19T04:36:43;20.20;99.90
20526;DHT22;10421;49.142;9.232;2023-09-19T04:39:10;20.20;99.90
20526;DHT22;10421;49.142;9.232;2023-09-19T04:41:38;20.20;99.90
20526;DHT22;10421;49.142;9.232;2023-09-19T04:44:07;20.20;99.90
20526;DHT22;10421;49.142;9.232;2023-09-19T04:46:33;20.20;99.90
20526;DHT22;10421;49.142;9.232;2023-09-19T04:49:00;20.10;99.90
20526;DHT22;10421;49.142;9.232;2023-09-19T04:51:28;20.10;99.90
20526;DHT22;10421;49.142;9.232;2023-09-19T04:54:01;20.10;99.90
20526;DHT22;10421;49.142;9.232;2023-09-19T04:56:28;20.10;99.90
20526;DHT22;10421;49.142;9.232;2023-09-19T04:58:55;20.10;99.90
20526;DHT22;10421;49.142;9.232;2023-09-19T05:01:23;20.10;99.90
20526;DHT22;10421;49.142;9.232;2023-09-19T05:03:50;20.10;99.90
20526;DHT22;10421;49.142;9.232;2023-09-19T05:06:18;20.00;99.90
20526;DHT22;10421;49.142;9.232;2023-09-19T05:08:46;20.00;99.90
20526;DHT22;10421;49.142;9.232;2023-09-19T05:11:17;20.00;99.90
20526;DHT22;10421;49.142;9.232;2023-09-19T05:13:44;20.10;99.90
20526;DHT22;10421;49.142;9.232;2023-09-19T05:16:11;20.00;99.90
20526;DHT22;10421;49.142;9.232;2023-09-19T05:18:38;19.90;99.90
20526;DHT22;10421;49.142;9.232;2023-09-19T05:21:05;19.90;99.90
20526;DHT22;10421;49.142;9.232;2023-09-19T05:23:33;19.90;99.90
20526;DHT22;10421;49.142;9.232;2023-09-19T05:26:00;19.90;99.90
20526;DHT22;10421;49.142;9.232;2023-09-19T05:28:28;19.90;99.90
20526;DHT22;10421;49.142;9.232;2023-09-19T05:30:55;19.90;99.90
20526;DHT22;10421;49.142;9.232;2023-09-19T05:33:22;19.90;99.90
20526;DHT22;10421;49.142;9.232;2023-09-19T05:35:49;20.00;99.90
20526;DHT22;10421;49.142;9.232;2023-09-19T05:38:16;20.10;99.90
20526;DHT22;10421;49.142;9.232;2023-09-19T05:40:45;20.20;99.90
20526;DHT22;10421;49.142;9.232;2023-09-19T05:43:12;20.30;99.90
20526;DHT22;10421;49.142;9.232;2023-09-19T05:45:41;20.30;99.90
20526;DHT22;10421;49.142;9.232;2023-09-19T05:48:09;20.30;99.90
20526;DHT22;10421;49.142;9.232;2023-09-19T05:50:37;20.20;99.90
20526;DHT22;10421;49.142;9.232;2023-09-19T05:53:04;20.30;99.90
20526;DHT22;10421;49.142;9.232;2023-09-19T05:55:31;20.30;99.90
20526;DHT22;10421;49.142;9.232;2023-09-19T05:57:58;20.30;99.90
20526;DHT22;10421;49.142;9.232;2023-09-19T06:00:26;20.30;99.90
20526;DHT22;10421;49.142;9.232;2023-09-19T06:02:56;20.30;99.90
20526;DHT22;10421;49.142;9.232;2023-09-19T06:05:23;20.30;99.90
20526;DHT22;10421;49.142;9.232;2023-09-19T06:07:52;20.20;99.90
20526;DHT22;10421;49.142;9.232;2023-09-19T06:10:19;20.20;99.90
20526;DHT22;10421;49.142;9.232;2023-09-19T06:12:48;20.30;99.90
20526;DHT22;10421;49.142;9.232;2023-09-19T06:15:16;20.20;99.90
20526;DHT22;10421;49.142;9.232;2023-09-19T06:17:47;20.20;99.90
20526;DHT22;10421;49.142;9.232;2023-09-19T06:20:15;20.30;99.90
20526;DHT22;10421;49.142;9.232;2023-09-19T06:22:44;20.20;99.90
20526;DHT22;10421;49.142;9.232;2023-09-19T06:25:12;20.20;99.90
20526;DHT22;10421;49.142;9.232;2023-09-19T06:27:42;20.20;99.90
20526;DHT22;10421;49.142;9.232;2023-09-19T06:30:10;20.10;99.90
20526;DHT22;10421;49.142;9.232;2023-09-19T06:32:38;20.20;99.90
20526;DHT22;10421;49.142;9.232;2023-09-19T06:35:05;20.00;99.90
20526;DHT22;10421;49.142;9.232;2023-09-19T06:37:35;20.00;99.90
20526;DHT22;10421;49.142;9.232;2023-09-19T06:40:05;20.00;99.90
20526;DHT22;10421;49.142;9.232;2023-09-19T06:42:32;20.10;99.90
20526;DHT22;10421;49.142;9.232;2023-09-19T06:44:59;20.00;99.90
20526;DHT22;10421;49.142;9.232;2023-09-19T06:47:26;20.00;99.90
20526;DHT22;10421;49.142;9.232;2023-09-19T06:49:52;19.90;99.90
20526;DHT22;10421;49.142;9.232;2023-09-19T06:52:19;19.90;99.90
20526;DHT22;10421;49.142;9.232;2023-09-19T06:54:49;19.90;99.90
20526;DHT22;10421;49.142;9.232;2023-09-19T06:57:17;19.90;99.90
20526;DHT22;10421;49.142;9.232;2023-09-19T06:59:45;19.90;99.90
20526;DHT22;10421;49.142;9.232;2023-09-19T07:02:12;19.90;99.90
20526;DHT22;10421;49.142;9.232;2023-09-19T07:04:39;20.00;99.90
20526;DHT22;10421;49.142;9.232;2023-09-19T07:07:06;19.90;99.90
20526;DHT22;10421;49.142;9.232;2023-09-19T07:09:34;20.10;99.90
20526;DHT22;10421;49.142;9.232;2023-09-19T07:12:02;20.10;99.90
20526;DHT22;10421;49.142;9.232;2023-09-19T07:14:29;20.10;99.90
20526;DHT22;10421;49.142;9.232;2023-09-19T07:16:56;20.00;99.90
20526;DHT22;10421;49.142;9.232;2023-09-19T07:19:26;20.10;99.90
20526;DHT22;10421;49.142;9.232;2023-09-19T07:21:53;20.20;99.90
20526;DHT22;10421;49.142;9.232;2023-09-19T07:24:20;20.10;99.90
20526;DHT22;10421;49.142;9.232;2023-09-19T07:26:49;20.20;99.90
20526;DHT22;10421;49.142;9.232;2023-09-19T07:29:17;20.10;99.90
20526;DHT22;10421;49.142;9.232;2023-09-19T07:31:44;20.10;99.90
20526;DHT22;10421;49.142;9.232;2023-09-19T07:34:11;20.10;99.90
20526;DHT22;10421;49.142;9.232;2023-09-19T07:36:39;20.20;99.90
20526;DHT22;10421;49.142;9.232;2023-09-19T07:39:07;20.20;99.90
20526;DHT22;10421;49.142;9.232;2023-09-19T07:41:34;20.20;99.90
20526;DHT22;10421;49.142;9.232;2023-09-19T07:44:01;20.30;99.90
20526;DHT22;10421;49.142;9.232;2023-09-19T07:46:29;20.30;99.90
20526;DHT22;10421;49.142;9.232;2023-09-19T07:48:56;20.40;99.90
20526;DHT22;10421;49.142;9.232;2023-09-19T07:51:23;20.50;99.90
20526;DHT22;10421;49.142;9.232;2023-09-19T07:53:50;20.60;99.90
20526;DHT22;10421;49.142;9.232;2023-09-19T07:56:18;20.60;99.90
20526;DHT22;10421;49.142;9.232;2023-09-19T07:58:45;20.70;99.90
20526;DHT22;10421;49.142;9.232;2023-09-19T08:01:12;20.70;99.90
20526;DHT22;10421;49.142;9.232;2023-09-19T08:03:42;20.70;99.70
20526;DHT22;10421;49.142;9.232;2023-09-19T08:06:09;20.70;99.80
20526;DHT22;10421;49.142;9.232;2023-09-19T08:08:37;20.80;99.90
20526;DHT22;10421;49.142;9.232;2023-09-19T08:11:04;20.90;99.40
20526;DHT22;10421;49.142;9.232;2023-09-19T08:13:37;21.00;99.40
20526;DHT22;10421;49.142;9.232;2023-09-19T08:16:06;21.10;99.10
20526;DHT22;10421;49.142;9.232;2023-09-19T08:18:33;21.10;98.70
20526;DHT22;10421;49.142;9.232;2023-09-19T08:21:01;21.00;98.90
20526;DHT22;10421;49.142;9.232;2023-09-19T08:23:28;21.00;98.00
20526;DHT22;10421;49.142;9.232;2023-09-19T08:25:56;21.00;98.10
20526;DHT22;10421;49.142;9.232;2023-09-19T08:28:23;21.10;97.80
20526;DHT22;10421;49.142;9.232;2023-09-19T08:30:50;21.10;97.60
20526;DHT22;10421;49.142;9.232;2023-09-19T08:33:17;21.00;97.00
20526;DHT22;10421;49.142;9.232;2023-09-19T08:35:45;21.00;96.90
20526;DHT22;10421;49.142;9.232;2023-09-19T08:38:13;21.10;96.90
20526;DHT22;10421;49.142;9.232;2023-09-19T08:40:40;21.10;96.50
20526;DHT22;10421;49.142;9.232;2023-09-19T08:43:09;21.30;96.10
20526;DHT22;10421;49.142;9.232;2023-09-19T08:45:36;21.50;95.90
20526;DHT22;10421;49.142;9.232;2023-09-19T08:48:16;21.60;95.90
20526;DHT22;10421;49.142;9.232;2023-09-19T08:50:48;21.80;95.80
20526;DHT22;10421;49.142;9.232;2023-09-19T08:53:21;22.00;95.90
20526;DHT22;10421;49.142;9.232;2023-09-19T08:55:53;22.00;95.10
20526;DHT22;10421;49.142;9.232;2023-09-19T08:58:25;22.10;94.90
20526;DHT22;10421;49.142;9.232;2023-09-19T09:00:55;22.10;94.80
20526;DHT22;10421;49.142;9.232;2023-09-19T09:03:23;22.00;94.90
20526;DHT22;10421;49.142;9.232;2023-09-19T09:05:50;21.90;94.60
20526;DHT22;10421;49.142;9.232;2023-09-19T09:08:19;21.80;94.70
20526;DHT22;10421;49.142;9.232;2023-09-19T09:10:47;21.70;94.70
20526;DHT22;10421;49.142;9.232;2023-09-19T09:13:14;21.60;94.60
20526;DHT22;10421;49.142;9.232;2023-09-19T09:15:42;21.50;94.80
20526;DHT22;10421;49.142;9.232;2023-09-19T09:18:10;21.50;94.10
20526;DHT22;10421;49.142;9.232;2023-09-19T09:20:37;21.50;94.30
20526;DHT22;10421;49.142;9.232;2023-09-19T09:23:04;21.60;94.60
20526;DHT22;10421;49.142;9.232;2023-09-19T09:25:48;21.60;94.90
20526;DHT22;10421;49.142;9.232;2023-09-19T09:28:20;21.70;94.00
20526;DHT22;10421;49.142;9.232;2023-09-19T09:30:47;21.90;94.10
20526;DHT22;10421;49.142;9.232;2023-09-19T09:33:14;21.90;94.00
20526;DHT22;10421;49.142;9.232;2023-09-19T09:35:52;22.00;93.80
20526;DHT22;10421;49.142;9.232;2023-09-19T09:38:22;22.20;94.00
20526;DHT22;10421;49.142;9.232;2023-09-19T09:40:53;22.30;93.90
20526;DHT22;10421;49.142;9.232;2023-09-19T09:43:26;22.30;94.00
20526;DHT22;10421;49.142;9.232;2023-09-19T09:46:14;22.50;93.80
20526;DHT22;10421;49.142;9.232;2023-09-19T09:49:00;22.50;92.90
20526;DHT22;10421;49.142;9.232;2023-09-19T09:51:59;22.60;92.80
20526;DHT22;10421;49.142;9.232;2023-09-19T09:54:27;22.70;93.10
20526;DHT22;10421;49.142;9.232;2023-09-19T09:57:02;22.80;92.70
20526;DHT22;10421;49.142;9.232;2023-09-19T09:59:46;23.00;92.70
20526;DHT22;10421;49.142;9.232;2023-09-19T10:02:14;23.00;92.30
20526;DHT22;10421;49.142;9.232;2023-09-19T10:04:45;23.00;92.10
20526;DHT22;10421;49.142;9.232;2023-09-19T10:07:28;23.00;92.10
20526;DHT22;10421;49.142;9.232;2023-09-19T10:09:58;23.00;92.40
20526;DHT22;10421;49.142;9.232;2023-09-19T10:12:38;23.20;92.50
20526;DHT22;10421;49.142;9.232;2023-09-19T10:15:10;23.20;91.50
20526;DHT22;10421;49.142;9.232;2023-09-19T10:17:38;23.30;91.80
20526;DHT22;10421;49.142;9.232;2023-09-19T10:20:10;23.40;91.40
20526;DHT22;10421;49.142;9.232;2023-09-19T10:22:48;23.60;91.60
20526;DHT22;10421;49.142;9.232;2023-09-19T10:25:25;23.90;91.10
20526;DHT22;10421;49.142;9.232;2023-09-19T10:27:56;24.00;90.90
20526;DHT22;10421;49.142;9.232;2023-09-19T10:30:24;24.10;90.50
20526;DHT22;10421;49.142;9.232;2023-09-19T10:32:58;24.10;90.30
20526;DHT22;10421;49.142;9.232;2023-09-19T10:35:26;24.10;90.10
20526;DHT22;10421;49.142;9.232;2023-09-19T10:37:55;24.00;90.00
20526;DHT22;10421;49.142;9.232;2023-09-19T10:40:24;24.00;89.00
20526;DHT22;10421;49.142;9.232;2023-09-19T10:43:01;24.10;89.90
20526;DHT22;10421;49.142;9.232;2023-09-19T10:45:30;24.30;90.00
20526;DHT22;10421;49.142;9.232;2023-09-19T10:47:58;24.30;89.20
20526;DHT22;10421;49.142;9.232;2023-09-19T10:50:28;24.40;88.50
20526;DHT22;10421;49.142;9.232;2023-09-19T10:53:00;24.50;88.00
20526;DHT22;10421;49.142;9.232;2023-09-19T10:55:32;24.50;87.00
20526;DHT22;10421;49.142;9.232;2023-09-19T10:58:02;24.40;85.10
20526;DHT22;10421;49.142;9.232;2023-09-19T11:00:51;24.30;84.00
20526;DHT22;10421;49.142;9.232;2023-09-19T11:03:20;24.30;83.70
20526;DHT22;10421;49.142;9.232;2023-09-19T11:06:05;24.40;83.40
20526;DHT22;10421;49.142;9.232;2023-09-19T11:08:54;24.50;82.40
20526;DHT22;10421;49.142;9.232;2023-09-19T11:11:40;24.70;81.70
20526;DHT22;10421;49.142;9.232;2023-09-19T11:14:28;24.70;80.90
20526;DHT22;10421;49.142;9.232;2023-09-19T11:20:20;24.70;81.10
20526;DHT22;10421;49.142;9.232;2023-09-19T11:23:22;24.50;81.10
20526;DHT22;10421;49.142;9.232;2023-09-19T11:25:52;24.50;81.10
20526;DHT22;10421;49.142;9.232;2023-09-19T11:28:34;24.40;80.70
20526;DHT22;10421;49.142;9.232;2023-09-19T11:34:47;24.50;79.10
20526;DHT22;10421;49.142;9.232;2023-09-19T11:40:25;24.30;77.50
20526;DHT22;10421;49.142;9.232;2023-09-19T11:42:53;24.30;79.30
20526;DHT22;10421;49.142;9.232;2023-09-19T11:48:24;24.40;79.00
20526;DHT22;10421;49.142;9.232;2023-09-19T11:50:54;24.60;79.30
20526;DHT22;10421;49.142;9.232;2023-09-19T11:53:23;24.80;77.30
20526;DHT22;10421;49.142;9.232;2023-09-19T11:55:50;25.10;78.70
20526;DHT22;10421;49.142;9.232;2023-09-19T11:58:18;25.40;78.80
20526;DHT22;10421;49.142;9.232;2023-09-19T12:00:45;25.50;78.80
20526;DHT22;10421;49.142;9.232;2023-09-19T12:03:21;25.70;77.20
20526;DHT22;10421;49.142;9.232;2023-09-19T12:05:49;25.80;76.10
20526;DHT22;10421;49.142;9.232;2023-09-19T12:08:18;25.90;76.10
20526;DHT22;10421;49.142;9.232;2023-09-19T12:10:47;25.80;75.60
20526;DHT22;10421;49.142;9.232;2023-09-19T12:13:18;25.70;75.90
20526;DHT22;10421;49.142;9.232;2023-09-19T12:15:45;25.60;76.20
20526;DHT22;10421;49.142;9.232;2023-09-19T12:18:26;25.40;75.30
20526;DHT22;10421;49.142;9.232;2023-09-19T12:20:53;25.30;76.30
20526;DHT22;10421;49.142;9.232;2023-09-19T12:23:22;25.20;75.30
20526;DHT22;10421;49.142;9.232;2023-09-19T12:25:49;25.10;76.40
20526;DHT22;10421;49.142;9.232;2023-09-19T12:28:19;25.20;76.40
20526;DHT22;10421;49.142;9.232;2023-09-19T12:30:47;25.30;75.50
20526;DHT22;10421;49.142;9.232;2023-09-19T12:33:16;25.20;74.50
20526;DHT22;10421;49.142;9.232;2023-09-19T12:35:45;25.30;75.00
20526;DHT22;10421;49.142;9.232;2023-09-19T12:38:24;25.30;75.30
20526;DHT22;10421;49.142;9.232;2023-09-19T12:40:51;25.30;75.50
20526;DHT22;10421;49.142;9.232;2023-09-19T12:43:18;25.30;75.20
20526;DHT22;10421;49.142;9.232;2023-09-19T12:45:45;25.40;75.70
20526;DHT22;10421;49.142;9.232;2023-09-19T12:48:21;25.60;75.10
20526;DHT22;10421;49.142;9.232;2023-09-19T12:51:04;25.80;74.50
20526;DHT22;10421;49.142;9.232;2023-09-19T12:53:39;25.80;73.40
20526;DHT22;10421;49.142;9.232;2023-09-19T12:56:08;25.70;72.90
20526;DHT22;10421;49.142;9.232;2023-09-19T12:58:48;25.60;73.40
20526;DHT22;10421;49.142;9.232;2023-09-19T13:01:15;25.60;73.50
20526;DHT22;10421;49.142;9.232;2023-09-19T13:03:42;25.60;73.80
20526;DHT22;10421;49.142;9.232;2023-09-19T13:06:09;25.70;72.50
20526;DHT22;10421;49.142;9.232;2023-09-19T13:08:39;25.60;72.70
20526;DHT22;10421;49.142;9.232;2023-09-19T13:11:10;25.70;73.00
20526;DHT22;10421;49.142;9.232;2023-09-19T13:13:39;25.70;72.30
20526;DHT22;10421;49.142;9.232;2023-09-19T13:16:07;25.80;72.60
20526;DHT22;10421;49.142;9.232;2023-09-19T13:18:45;25.90;72.80
20526;DHT22;10421;49.142;9.232;2023-09-19T13:21:13;26.10;72.20
20526;DHT22;10421;49.142;9.232;2023-09-19T13:23:54;26.10;71.00
20526;DHT22;10421;49.142;9.232;2023-09-19T13:26:24;26.10;69.60
20526;DHT22;10421;49.142;9.232;2023-09-19T13:28:51;26.10;69.40
20526;DHT22;10421;49.142;9.232;2023-09-19T13:31:18;26.10;68.50
20526;DHT22;10421;49.142;9.232;2023-09-19T13:33:45;26.10;69.40
20526;DHT22;10421;49.142;9.232;2023-09-19T13:36:12;26.10;69.50
20526;DHT22;10421;49.142;9.232;2023-09-19T13:38:39;26.00;69.30
20526;DHT22;10421;49.142;9.232;2023-09-19T13:41:09;25.80;69.60
20526;DHT22;10421;49.142;9.232;2023-09-19T13:43:36;25.80;69.30
20526;DHT22;10421;49.142;9.232;2023-09-19T13:46:04;25.60;69.00
20526;DHT22;10421;49.142;9.232;2023-09-19T13:48:33;25.60;69.40
20526;DHT22;10421;49.142;9.232;2023-09-19T13:51:02;25.40;70.30
20526;DHT22;10421;49.142;9.232;2023-09-19T13:53:30;25.40;70.30
20526;DHT22;10421;49.142;9.232;2023-09-19T13:55:56;25.50;69.90
20526;DHT22;10421;49.142;9.232;2023-09-19T13:58:24;25.60;69.60
20526;DHT22;10421;49.142;9.232;2023-09-19T14:00:52;25.80;69.50
20526;DHT22;10421;49.142;9.232;2023-09-19T14:03:21;25.90;68.80
20526;DHT22;10421;49.142;9.232;2023-09-19T14:05:48;26.00;68.70
20526;DHT22;10421;49.142;9.232;2023-09-19T14:08:17;26.00;68.10
20526;DHT22;10421;49.142;9.232;2023-09-19T14:10:44;26.00;68.40
20526;DHT22;10421;49.142;9.232;2023-09-19T14:13:11;26.00;68.20
20526;DHT22;10421;49.142;9.232;2023-09-19T14:15:40;25.90;68.00
20526;DHT22;10421;49.142;9.232;2023-09-19T14:18:08;25.80;67.30
20526;DHT22;10421;49.142;9.232;2023-09-19T14:20:38;25.60;67.50
20526;DHT22;10421;49.142;9.232;2023-09-19T14:23:05;25.50;68.50
20526;DHT22;10421;49.142;9.232;2023-09-19T14:25:34;25.50;69.00
20526;DHT22;10421;49.142;9.232;2023-09-19T14:28:01;25.40;68.80
20526;DHT22;10421;49.142;9.232;2023-09-19T14:30:28;25.50;69.40
20526;DHT22;10421;49.142;9.232;2023-09-19T14:32:56;25.50;69.20
20526;DHT22;10421;49.142;9.232;2023-09-19T14:35:24;25.40;70.00
20526;DHT22;10421;49.142;9.232;2023-09-19T14:37:50;25.50;69.70
20526;DHT22;10421;49.142;9.232;2023-09-19T14:40:17;25.60;69.50
20526;DHT22;10421;49.142;9.232;2023-09-19T14:42:45;25.60;69.40
20526;DHT22;10421;49.142;9.232;2023-09-19T14:45:13;25.70;69.00
20526;DHT22;10421;49.142;9.232;2023-09-19T14:47:43;25.70;69.00
20526;DHT22;10421;49.142;9.232;2023-09-19T14:50:11;25.80;69.30
20526;DHT22;10421;49.142;9.232;2023-09-19T14:52:38;25.90;69.70
20526;DHT22;10421;49.142;9.232;2023-09-19T14:55:07;25.90;68.90
20526;DHT22;10421;49.142;9.232;2023-09-19T14:57:34;26.00;69.40
20526;DHT22;10421;49.142;9.232;2023-09-19T15:00:06;26.10;68.90
20526;DHT22;10421;49.142;9.232;2023-09-19T15:02:37;26.00;68.10
20526;DHT22;10421;49.142;9.232;2023-09-19T15:05:05;26.00;67.80
20526;DHT22;10421;49.142;9.232;2023-09-19T15:07:35;26.00;67.20
20526;DHT22;10421;49.142;9.232;2023-09-19T15:10:02;26.00;67.90
20526;DHT22;10421;49.142;9.232;2023-09-19T15:12:29;25.80;68.60
20526;DHT22;10421;49.142;9.232;2023-09-19T15:14:55;25.70;68.20
20526;DHT22;10421;49.142;9.232;2023-09-19T15:17:22;25.60;68.00
20526;DHT22;10421;49.142;9.232;2023-09-19T15:19:50;25.50;67.90
20526;DHT22;10421;49.142;9.232;2023-09-19T15:22:17;25.50;68.00
20526;DHT22;10421;49.142;9.232;2023-09-19T15:24:46;25.50;68.30
20526;DHT22;10421;49.142;9.232;2023-09-19T15:27:13;25.50;69.40
20526;DHT22;10421;49.142;9.232;2023-09-19T15:29:41;25.50;69.60
20526;DHT22;10421;49.142;9.232;2023-09-19T15:32:09;25.60;69.40
20526;DHT22;10421;49.142;9.232;2023-09-19T15:34:36;25.60;68.80
20526;DHT22;10421;49.142;9.232;2023-09-19T15:37:03;25.60;68.70
20526;DHT22;10421;49.142;9.232;2023-09-19T15:39:30;25.60;68.80
20526;DHT22;10421;49.142;9.232;2023-09-19T15:42:00;25.50;69.00
20526;DHT22;10421;49.142;9.232;2023-09-19T15:44:27;25.60;68.80
20526;DHT22;10421;49.142;9.232;2023-09-19T15:46:53;25.50;68.80
20526;DHT22;10421;49.142;9.232;2023-09-19T15:49:20;25.40;68.50
20526;DHT22;10421;49.142;9.232;2023-09-19T15:51:48;25.40;68.70
20526;DHT22;10421;49.142;9.232;2023-09-19T15:54:15;25.50;69.40
20526;DHT22;10421;49.142;9.232;2023-09-19T15:56:43;25.40;68.20